PWSweather.com
Personal Weather Stations
Station Observations
KMIEASTT1
Tawas Bay, East Tawas, MI 48730

Tawas BayEast Tawas, MI 48730

Lat: 44.28, Lon: -83.48

Elevation: 600

Station Type: Davis VantagePro

http://www.tawasbayweather.com

High Low Average
Temperature 47.0°F8.3°C 39.0°F3.9°C 41.6°F5.3°C
Dew Point 46.1°F7.8°C 36.4°F2.4°C 40.0°F4.4°C
Winds 12.0 mph 19.3 kmh Calm Calm 4.0 mph E6.4 kmh E
Wind Gusts 23.0 mph37.0 kmh -- 10.0 mph16.1 kmh
Humidity 98% 81% 94%
Pressure 30.22 in1023.4 mb 29.78 in1008.5 mb -
Precipitation 0.00 in0.0 mm - -
Hour Temp Dew Point Humidity Winds Wind Gusts Pressure Precip Precip Rate Daily Precip Total
12:00 AM 46.0°F7.8°C 39.9°F4.4°C 79% 2.0 mph NE3.2 kmh NE 9.0 mph14.5 kmh 30.19 in1022.4 mb 0.00 in0.0 mm 0.00 in0.0 mm 0.00 in0.0 mm
12:15 AM 45.4°F7.4°C 39.3°F4.1°C 79% 4.0 mph ENE6.4 kmh ENE 13.0 mph20.9 kmh 30.18 in1022.0 mb 0.00 in0.0 mm 0.00 in0.0 mm 0.00 in0.0 mm
12:30 AM 44.7°F7.1°C 38.6°F3.7°C 79% 11.0 mph NE17.7 kmh NE 15.0 mph24.1 kmh 30.18 in1022.0 mb 0.00 in0.0 mm 0.00 in0.0 mm 0.00 in0.0 mm
12:45 AM 44.0°F6.7°C 38.2°F3.4°C 80% 9.0 mph NE14.5 kmh NE 11.0 mph17.7 kmh 30.16 in1021.3 mb 0.00 in0.0 mm 0.00 in0.0 mm 0.00 in0.0 mm
01:00 AM 43.1°F6.2°C 37.7°F3.2°C 81% 2.0 mph NE3.2 kmh NE 17.0 mph27.4 kmh 30.17 in1021.7 mb 0.00 in0.0 mm 0.00 in0.0 mm 0.00 in0.0 mm
01:15 AM 42.7°F5.9°C 37.6°F3.1°C 82% 9.0 mph NE14.5 kmh NE 13.0 mph20.9 kmh 30.17 in1021.7 mb 0.00 in0.0 mm 0.00 in0.0 mm 0.00 in0.0 mm
01:30 AM 42.3°F5.7°C 37.5°F3.1°C 83% 7.0 mph NE11.3 kmh NE 13.0 mph20.9 kmh 30.20 in1022.7 mb 0.00 in0.0 mm 0.00 in0.0 mm 0.00 in0.0 mm
01:45 AM 42.0°F5.6°C 37.2°F2.9°C 83% 8.0 mph E12.9 kmh E 11.0 mph17.7 kmh 30.20 in1022.7 mb 0.00 in0.0 mm 0.00 in0.0 mm 0.00 in0.0 mm
02:00 AM 42.0°F5.6°C 37.2°F2.9°C 83% 1.0 mph E1.6 kmh E 7.0 mph11.3 kmh 30.22 in1023.4 mb 0.00 in0.0 mm 0.00 in0.0 mm 0.00 in0.0 mm
02:15 AM 42.0°F5.6°C 37.2°F2.9°C 83% 4.0 mph NE6.4 kmh NE 8.0 mph12.9 kmh 30.20 in1022.7 mb 0.00 in0.0 mm 0.00 in0.0 mm 0.00 in0.0 mm
02:30 AM 41.8°F5.4°C 37.0°F2.8°C 83% 3.0 mph NE4.8 kmh NE 8.0 mph12.9 kmh 30.20 in1022.7 mb 0.00 in0.0 mm 0.00 in0.0 mm 0.00 in0.0 mm
02:45 AM 41.7°F5.4°C 36.9°F2.7°C 83% 4.0 mph ENE6.4 kmh ENE 9.0 mph14.5 kmh 30.20 in1022.7 mb 0.00 in0.0 mm 0.00 in0.0 mm 0.00 in0.0 mm
03:00 AM 41.5°F5.3°C 36.7°F2.6°C 83% 7.0 mph ENE11.3 kmh ENE 11.0 mph17.7 kmh 30.18 in1022.0 mb 0.00 in0.0 mm 0.00 in0.0 mm 0.00 in0.0 mm
03:15 AM 41.3°F5.2°C 36.5°F2.5°C 83% 4.0 mph ENE6.4 kmh ENE 10.0 mph16.1 kmh 30.18 in1022.0 mb 0.00 in0.0 mm 0.00 in0.0 mm 0.00 in0.0 mm
03:30 AM 41.2°F5.1°C 36.4°F2.4°C 83% 1.0 mph E1.6 kmh E 9.0 mph14.5 kmh 30.17 in1021.7 mb 0.00 in0.0 mm 0.00 in0.0 mm 0.00 in0.0 mm
03:45 AM 41.0°F5.0°C 36.5°F2.5°C 84% 5.0 mph ENE8.0 kmh ENE 11.0 mph17.7 kmh 30.15 in1021.0 mb 0.00 in0.0 mm 0.00 in0.0 mm 0.00 in0.0 mm
04:00 AM 40.7°F4.8°C 36.6°F2.6°C 85% 7.0 mph NE11.3 kmh NE 11.0 mph17.7 kmh 30.14 in1020.7 mb 0.00 in0.0 mm 0.00 in0.0 mm 0.00 in0.0 mm
04:15 AM 40.4°F4.7°C 36.6°F2.6°C 86% 4.0 mph ENE6.4 kmh ENE 11.0 mph17.7 kmh 30.12 in1020.0 mb 0.00 in0.0 mm 0.00 in0.0 mm 0.00 in0.0 mm
04:30 AM 40.1°F4.5°C 36.6°F2.6°C 87% 2.0 mph E3.2 kmh E 9.0 mph14.5 kmh 30.12 in1020.0 mb 0.00 in0.0 mm 0.00 in0.0 mm 0.00 in0.0 mm
04:45 AM 40.0°F4.4°C 36.7°F2.6°C 88% 7.0 mph E11.3 kmh E 15.0 mph24.1 kmh 30.09 in1019.0 mb 0.00 in0.0 mm 0.00 in0.0 mm 0.00 in0.0 mm
05:00 AM 40.0°F4.4°C 36.7°F2.6°C 88% 8.0 mph E12.9 kmh E 15.0 mph24.1 kmh 30.06 in1017.9 mb 0.00 in0.0 mm 0.00 in0.0 mm 0.00 in0.0 mm
05:15 AM 40.1°F4.5°C 37.1°F2.8°C 89% 3.0 mph NE4.8 kmh NE 17.0 mph27.4 kmh 30.06 in1017.9 mb 0.00 in0.0 mm 0.00 in0.0 mm 0.00 in0.0 mm
05:30 AM 40.3°F4.6°C 37.3°F2.9°C 89% 3.0 mph ENE4.8 kmh ENE 13.0 mph20.9 kmh 30.05 in1017.6 mb 0.00 in0.0 mm 0.00 in0.0 mm 0.00 in0.0 mm
05:45 AM 40.3°F4.6°C 37.3°F2.9°C 89% 4.0 mph NE6.4 kmh NE 15.0 mph24.1 kmh 30.06 in1017.9 mb 0.00 in0.0 mm 0.00 in0.0 mm 0.00 in0.0 mm
06:00 AM 40.4°F4.7°C 38.0°F3.3°C 91% 2.0 mph NE3.2 kmh NE 9.0 mph14.5 kmh 30.10 in1019.3 mb 0.00 in0.0 mm 0.00 in0.0 mm 0.00 in0.0 mm
06:15 AM 40.1°F4.5°C 38.0°F3.3°C 92% 5.0 mph NE8.0 kmh NE 7.0 mph11.3 kmh 30.12 in1020.0 mb 0.03 in0.8 mm 0.12 in3.0 mm 0.03 in0.8 mm
06:30 AM 39.7°F4.3°C 37.6°F3.1°C 92% 5.0 mph ENE8.0 kmh ENE 13.0 mph20.9 kmh 30.09 in1019.0 mb 0.07 in1.8 mm 0.16 in4.1 mm 0.07 in1.8 mm
06:45 AM 39.4°F4.1°C 37.6°F3.1°C 93% 4.0 mph ENE6.4 kmh ENE 15.0 mph24.1 kmh 30.08 in1018.6 mb 0.13 in3.3 mm 0.24 in6.1 mm 0.13 in3.3 mm
07:00 AM 39.2°F4.0°C 37.6°F3.1°C 94% 7.0 mph ENE11.3 kmh ENE 11.0 mph17.7 kmh 30.07 in1018.3 mb 0.19 in4.8 mm 0.08 in2.0 mm 0.19 in4.8 mm
07:15 AM 39.7°F4.3°C 38.4°F3.6°C 95% 4.0 mph NE6.4 kmh NE 12.0 mph19.3 kmh 30.14 in1020.7 mb 0.29 in7.4 mm 0.40 in10.2 mm 0.29 in7.4 mm
07:30 AM 39.6°F4.2°C 38.3°F3.5°C 95% Calm Calm 4.0 mph6.4 kmh 30.18 in1022.0 mb 0.33 in8.4 mm 0.16 in4.1 mm 0.33 in8.4 mm
07:45 AM 39.4°F4.1°C 38.1°F3.4°C 95% Calm Calm 7.0 mph11.3 kmh 30.12 in1020.0 mb 0.36 in9.1 mm 0.12 in3.0 mm 0.36 in9.1 mm
08:00 AM 39.3°F4.1°C 38.0°F3.3°C 95% 4.0 mph ENE6.4 kmh ENE 13.0 mph20.9 kmh 30.08 in1018.6 mb 0.27 in6.9 mm 0.00 in0.0 mm 0.36 in9.1 mm
08:15 AM 39.3°F4.1°C 38.3°F3.5°C 96% 11.0 mph ESE17.7 kmh ESE 13.0 mph20.9 kmh 30.05 in1017.6 mb 0.28 in7.1 mm 0.04 in1.0 mm 0.37 in9.4 mm
08:30 AM 39.1°F3.9°C 38.1°F3.4°C 96% 5.0 mph E8.0 kmh E 15.0 mph24.1 kmh 30.06 in1017.9 mb 0.08 in2.0 mm 0.00 in0.0 mm 0.37 in9.4 mm
08:45 AM 39.0°F3.9°C 38.0°F3.3°C 96% 11.0 mph E17.7 kmh E 23.0 mph37.0 kmh 30.04 in1017.3 mb 0.08 in2.0 mm 0.00 in0.0 mm 0.37 in9.4 mm
09:00 AM 39.1°F3.9°C 38.1°F3.4°C 96% 9.0 mph ENE14.5 kmh ENE 12.0 mph19.3 kmh 30.03 in1016.9 mb 0.02 in0.5 mm 0.00 in0.0 mm 0.37 in9.4 mm
09:15 AM 39.3°F4.1°C 38.3°F3.5°C 96% 8.0 mph ENE12.9 kmh ENE 22.0 mph35.4 kmh 30.03 in1016.9 mb 0.02 in0.5 mm 0.00 in0.0 mm 0.37 in9.4 mm
09:30 AM 39.3°F4.1°C 38.3°F3.5°C 96% 3.0 mph ENE4.8 kmh ENE 11.0 mph17.7 kmh 30.05 in1017.6 mb 0.00 in0.0 mm 0.00 in0.0 mm 0.37 in9.4 mm
09:45 AM 39.3°F4.1°C 38.3°F3.5°C 96% 4.0 mph NE6.4 kmh NE 13.0 mph20.9 kmh 30.04 in1017.3 mb 0.00 in0.0 mm 0.00 in0.0 mm 0.37 in9.4 mm
10:00 AM 39.5°F4.2°C 38.5°F3.6°C 96% 4.0 mph N6.4 kmh N 11.0 mph17.7 kmh 30.05 in1017.6 mb 0.00 in0.0 mm 0.00 in0.0 mm 0.37 in9.4 mm
10:15 AM 39.5°F4.2°C 38.5°F3.6°C 96% 8.0 mph E12.9 kmh E 12.0 mph19.3 kmh 30.05 in1017.6 mb 0.00 in0.0 mm 0.00 in0.0 mm 0.37 in9.4 mm
10:30 AM 39.5°F4.2°C 38.5°F3.6°C 96% 6.0 mph E9.7 kmh E 18.0 mph29.0 kmh 30.04 in1017.3 mb 0.00 in0.0 mm 0.00 in0.0 mm 0.37 in9.4 mm
10:45 AM 39.6°F4.2°C 38.6°F3.7°C 96% 3.0 mph ENE4.8 kmh ENE 12.0 mph19.3 kmh 30.02 in1016.6 mb 0.00 in0.0 mm 0.00 in0.0 mm 0.37 in9.4 mm
11:00 AM 39.6°F4.2°C 38.6°F3.7°C 96% 4.0 mph E6.4 kmh E 14.0 mph22.5 kmh 30.03 in1016.9 mb 0.00 in0.0 mm 0.00 in0.0 mm 0.37 in9.4 mm
11:15 AM 39.5°F4.2°C 38.5°F3.6°C 96% 4.0 mph NE6.4 kmh NE 14.0 mph22.5 kmh 30.02 in1016.6 mb 0.00 in0.0 mm 0.00 in0.0 mm 0.37 in9.4 mm
11:30 AM 39.7°F4.3°C 38.7°F3.7°C 96% 9.0 mph E14.5 kmh E 9.0 mph14.5 kmh 30.02 in1016.6 mb 0.01 in0.3 mm 0.04 in1.0 mm 0.38 in9.7 mm
11:45 AM 39.7°F4.3°C 38.7°F3.7°C 96% 12.0 mph ENE19.3 kmh ENE 13.0 mph20.9 kmh 30.00 in1015.9 mb 0.01 in0.3 mm 0.00 in0.0 mm 0.38 in9.7 mm
12:00 PM 39.7°F4.3°C 38.7°F3.7°C 96% 3.0 mph NE4.8 kmh NE 13.0 mph20.9 kmh 29.99 in1015.6 mb 0.02 in0.5 mm 0.01 in0.3 mm 0.39 in9.9 mm
12:15 PM 39.8°F4.3°C 38.8°F3.8°C 96% 7.0 mph ESE11.3 kmh ESE 14.0 mph22.5 kmh 29.99 in1015.6 mb 0.02 in0.5 mm 0.00 in0.0 mm 0.39 in9.9 mm
12:30 PM 40.1°F4.5°C 39.3°F4.1°C 97% 7.0 mph NE11.3 kmh NE 11.0 mph17.7 kmh 29.97 in1014.9 mb 0.01 in0.3 mm 0.00 in0.0 mm 0.39 in9.9 mm
12:45 PM 40.2°F4.6°C 39.4°F4.1°C 97% 2.0 mph E3.2 kmh E 9.0 mph14.5 kmh 29.97 in1014.9 mb 0.02 in0.5 mm 0.04 in1.0 mm 0.40 in10.2 mm
01:00 PM 40.7°F4.8°C 39.9°F4.4°C 97% 3.0 mph ENE4.8 kmh ENE 13.0 mph20.9 kmh 29.95 in1014.2 mb 0.03 in0.8 mm 0.01 in0.3 mm 0.41 in10.4 mm
01:15 PM 40.9°F4.9°C 40.1°F4.5°C 97% 5.0 mph NNE8.0 kmh NNE 9.0 mph14.5 kmh 29.95 in1014.2 mb 0.03 in0.8 mm 0.00 in0.0 mm 0.41 in10.4 mm
01:30 PM 41.1°F5.1°C 40.3°F4.6°C 97% 4.0 mph NE6.4 kmh NE 8.0 mph12.9 kmh 29.96 in1014.6 mb 0.04 in1.0 mm 0.04 in1.0 mm 0.42 in10.7 mm
01:45 PM 41.6°F5.3°C 40.8°F4.9°C 97% 4.0 mph NE6.4 kmh NE 11.0 mph17.7 kmh 29.93 in1013.5 mb 0.05 in1.3 mm 0.04 in1.0 mm 0.43 in10.9 mm
02:00 PM 41.7°F5.4°C 40.9°F4.9°C 97% 3.0 mph ENE4.8 kmh ENE 8.0 mph12.9 kmh 29.93 in1013.5 mb 0.02 in0.5 mm 0.00 in0.0 mm 0.43 in10.9 mm
02:15 PM 41.3°F5.2°C 40.5°F4.7°C 97% 5.0 mph E8.0 kmh E 10.0 mph16.1 kmh 29.93 in1013.5 mb 0.03 in0.8 mm 0.04 in1.0 mm 0.44 in11.2 mm
02:30 PM 41.4°F5.2°C 40.6°F4.8°C 97% 7.0 mph ESE11.3 kmh ESE 10.0 mph16.1 kmh 29.93 in1013.5 mb 0.04 in1.0 mm 0.04 in1.0 mm 0.45 in11.4 mm
02:45 PM 41.5°F5.3°C 40.7°F4.8°C 97% 5.0 mph NE8.0 kmh NE 13.0 mph20.9 kmh 29.91 in1012.9 mb 0.05 in1.3 mm 0.04 in1.0 mm 0.46 in11.7 mm
03:00 PM 41.6°F5.3°C 40.8°F4.9°C 97% 3.0 mph ENE4.8 kmh ENE 14.0 mph22.5 kmh 29.90 in1012.5 mb 0.04 in1.0 mm 0.00 in0.0 mm 0.46 in11.7 mm
03:15 PM 41.5°F5.3°C 40.7°F4.8°C 97% 2.0 mph NE3.2 kmh NE 14.0 mph22.5 kmh 29.88 in1011.9 mb 0.04 in1.0 mm 0.00 in0.0 mm 0.46 in11.7 mm
03:30 PM 41.5°F5.3°C 40.7°F4.8°C 97% 6.0 mph E9.7 kmh E 10.0 mph16.1 kmh 29.87 in1011.5 mb 0.01 in0.3 mm 0.00 in0.0 mm 0.46 in11.7 mm
03:45 PM 41.3°F5.2°C 40.5°F4.7°C 97% 3.0 mph NE4.8 kmh NE 11.0 mph17.7 kmh 29.86 in1011.2 mb 0.01 in0.3 mm 0.00 in0.0 mm 0.46 in11.7 mm
04:00 PM 41.3°F5.2°C 40.5°F4.7°C 97% 4.0 mph ENE6.4 kmh ENE 8.0 mph12.9 kmh 29.85 in1010.8 mb 0.00 in0.0 mm 0.00 in0.0 mm 0.46 in11.7 mm
04:15 PM 41.6°F5.3°C 40.8°F4.9°C 97% 5.0 mph NE8.0 kmh NE 11.0 mph17.7 kmh 29.85 in1010.8 mb 0.00 in0.0 mm 0.00 in0.0 mm 0.46 in11.7 mm
04:30 PM 41.5°F5.3°C 40.7°F4.8°C 97% 4.0 mph E6.4 kmh E 6.0 mph9.7 kmh 29.84 in1010.5 mb 0.00 in0.0 mm 0.00 in0.0 mm 0.46 in11.7 mm
04:45 PM 41.6°F5.3°C 40.8°F4.9°C 97% 2.0 mph E3.2 kmh E 11.0 mph17.7 kmh 29.82 in1009.8 mb 0.01 in0.3 mm 0.04 in1.0 mm 0.47 in11.9 mm
05:00 PM 41.8°F5.4°C 41.3°F5.2°C 98% 5.0 mph E8.0 kmh E 10.0 mph16.1 kmh 29.83 in1010.2 mb 0.01 in0.3 mm 0.00 in0.0 mm 0.47 in11.9 mm
05:15 PM 41.8°F5.4°C 41.0°F5.0°C 97% 2.0 mph E3.2 kmh E 11.0 mph17.7 kmh 29.83 in1010.2 mb 0.01 in0.3 mm 0.00 in0.0 mm 0.47 in11.9 mm
05:30 PM 41.9°F5.5°C 41.4°F5.2°C 98% 5.0 mph NE8.0 kmh NE 10.0 mph16.1 kmh 29.81 in1009.5 mb 0.01 in0.3 mm 0.00 in0.0 mm 0.47 in11.9 mm
05:45 PM 42.1°F5.6°C 41.6°F5.3°C 98% 7.0 mph ESE11.3 kmh ESE 7.0 mph11.3 kmh 29.82 in1009.8 mb 0.01 in0.3 mm 0.00 in0.0 mm 0.47 in11.9 mm
06:00 PM 42.0°F5.6°C 41.5°F5.3°C 98% 2.0 mph NE3.2 kmh NE 8.0 mph12.9 kmh 29.79 in1008.8 mb 0.00 in0.0 mm 0.00 in0.0 mm 0.47 in11.9 mm
06:15 PM 41.9°F5.5°C 41.4°F5.2°C 98% 1.0 mph E1.6 kmh E 8.0 mph12.9 kmh 29.80 in1009.1 mb 0.00 in0.0 mm 0.00 in0.0 mm 0.47 in11.9 mm
06:30 PM 41.8°F5.4°C 41.3°F5.2°C 98% 3.0 mph ENE4.8 kmh ENE 6.0 mph9.7 kmh 29.81 in1009.5 mb 0.00 in0.0 mm 0.00 in0.0 mm 0.47 in11.9 mm
06:45 PM 41.7°F5.4°C 41.2°F5.1°C 98% Calm Calm 3.0 mph4.8 kmh 29.81 in1009.5 mb 0.00 in0.0 mm 0.00 in0.0 mm 0.47 in11.9 mm
07:00 PM 41.8°F5.4°C 41.3°F5.2°C 98% 4.0 mph E6.4 kmh E 4.0 mph6.4 kmh 29.80 in1009.1 mb 0.00 in0.0 mm 0.00 in0.0 mm 0.47 in11.9 mm
07:15 PM 41.9°F5.5°C 41.4°F5.2°C 98% Calm Calm 5.0 mph8.0 kmh 29.78 in1008.5 mb 0.00 in0.0 mm 0.00 in0.0 mm 0.47 in11.9 mm
07:30 PM 42.0°F5.6°C 41.5°F5.3°C 98% Calm Calm 2.0 mph3.2 kmh 29.78 in1008.5 mb 0.00 in0.0 mm 0.00 in0.0 mm 0.47 in11.9 mm
07:45 PM 42.1°F5.6°C 41.6°F5.3°C 98% Calm Calm -- 29.78 in1008.5 mb 0.00 in0.0 mm 0.00 in0.0 mm 0.47 in11.9 mm
08:00 PM 42.3°F5.7°C 41.8°F5.4°C 98% Calm Calm -- 29.79 in1008.8 mb 0.00 in0.0 mm 0.00 in0.0 mm 0.47 in11.9 mm
08:15 PM 42.6°F5.9°C 42.1°F5.6°C 98% Calm Calm -- 29.79 in1008.8 mb 0.00 in0.0 mm 0.00 in0.0 mm 0.47 in11.9 mm
08:30 PM 42.7°F5.9°C 42.2°F5.7°C 98% Calm Calm -- 29.79 in1008.8 mb 0.00 in0.0 mm 0.00 in0.0 mm 0.47 in11.9 mm
08:45 PM 42.8°F6.0°C 42.3°F5.7°C 98% Calm Calm -- 29.79 in1008.8 mb 0.00 in0.0 mm 0.00 in0.0 mm 0.47 in11.9 mm
09:00 PM 43.0°F6.1°C 42.5°F5.8°C 98% Calm Calm 4.0 mph6.4 kmh 29.79 in1008.8 mb 0.00 in0.0 mm 0.00 in0.0 mm 0.47 in11.9 mm
09:15 PM 43.2°F6.2°C 42.7°F5.9°C 98% 2.0 mph W3.2 kmh W 3.0 mph4.8 kmh 29.80 in1009.1 mb 0.00 in0.0 mm 0.00 in0.0 mm 0.47 in11.9 mm
09:30 PM 43.3°F6.3°C 42.8°F6.0°C 98% 4.0 mph WSW6.4 kmh WSW 5.0 mph8.0 kmh 29.81 in1009.5 mb 0.00 in0.0 mm 0.00 in0.0 mm 0.47 in11.9 mm
09:45 PM 43.6°F6.4°C 43.1°F6.2°C 98% 2.0 mph W3.2 kmh W 5.0 mph8.0 kmh 29.81 in1009.5 mb 0.00 in0.0 mm 0.00 in0.0 mm 0.47 in11.9 mm
10:00 PM 44.0°F6.7°C 43.5°F6.4°C 98% 5.0 mph WSW8.0 kmh WSW 6.0 mph9.7 kmh 29.81 in1009.5 mb 0.00 in0.0 mm 0.00 in0.0 mm 0.47 in11.9 mm
10:15 PM 44.5°F6.9°C 44.0°F6.7°C 98% 5.0 mph WSW8.0 kmh WSW 7.0 mph11.3 kmh 29.81 in1009.5 mb 0.00 in0.0 mm 0.00 in0.0 mm 0.47 in11.9 mm
10:30 PM 44.7°F7.1°C 44.2°F6.8°C 98% 5.0 mph WSW8.0 kmh WSW 7.0 mph11.3 kmh 29.81 in1009.5 mb 0.00 in0.0 mm 0.00 in0.0 mm 0.47 in11.9 mm
10:45 PM 44.9°F7.2°C 44.4°F6.9°C 98% 5.0 mph SW8.0 kmh SW 7.0 mph11.3 kmh 29.80 in1009.1 mb 0.00 in0.0 mm 0.00 in0.0 mm 0.47 in11.9 mm
11:00 PM 45.2°F7.3°C 44.7°F7.1°C 98% 4.0 mph SW6.4 kmh SW 8.0 mph12.9 kmh 29.80 in1009.1 mb 0.00 in0.0 mm 0.00 in0.0 mm 0.47 in11.9 mm
11:15 PM 45.9°F7.7°C 45.4°F7.4°C 98% 8.0 mph WSW12.9 kmh WSW 11.0 mph17.7 kmh 29.80 in1009.1 mb 0.00 in0.0 mm 0.00 in0.0 mm 0.47 in11.9 mm
11:30 PM 46.6°F8.1°C 46.1°F7.8°C 98% 5.0 mph SW8.0 kmh SW 11.0 mph17.7 kmh 29.80 in1009.1 mb 0.00 in0.0 mm 0.00 in0.0 mm 0.47 in11.9 mm
11:45 PM 46.5°F8.1°C 46.0°F7.8°C 98% 6.0 mph WSW9.7 kmh WSW 11.0 mph17.7 kmh 29.80 in1009.1 mb 0.00 in0.0 mm 0.00 in0.0 mm 0.47 in11.9 mm